QFA446 YMML-YSSY
Flight info
| Callsign | QFA446 |
|---|---|
| Flight time | 1h 5m |
| Altitude | 37000 |
| Route | DOSEL Y59 RIVET |
| Aircraft | A20N/M-SDE2E3FGHIRWXY/LB1 |
Departure
| Time | 2026-04-21 03:10 |
|---|---|
| Airport | Melbourne Airport (YMML) |
Arrival
| Time | 2026-04-21 04:15 |
|---|---|
| Airport | Sydney Kingsford Smith International Airport (YSSY) |
| Time | Latitude | Longitude | Altitude | Speed | Heading |
|---|---|---|---|---|---|
| 2026-04-21 02:43 | -37.66759 | 144.84897 | 353 ft | 0 kts | 82° |
| 2026-04-21 02:57 | -37.66760 | 144.84884 | 354 ft | 3 kts | 82° |
| 2026-04-21 02:57 | -37.66763 | 144.84862 | 353 ft | 3 kts | 54° |
| 2026-04-21 02:57 | -37.66777 | 144.84851 | 356 ft | 3 kts | 14° |
| 2026-04-21 02:58 | -37.66791 | 144.84846 | 350 ft | 0 kts | 348° |
| 2026-04-21 03:00 | -37.66788 | 144.84845 | 346 ft | 1 kts | 347° |
| 2026-04-21 03:01 | -37.66756 | 144.84835 | 350 ft | 7 kts | 345° |
| 2026-04-21 03:01 | -37.66704 | 144.84816 | 349 ft | 9 kts | 346° |
| 2026-04-21 03:01 | -37.66647 | 144.84777 | 344 ft | 10 kts | 301° |
| 2026-04-21 03:01 | -37.66641 | 144.84710 | 346 ft | 5 kts | 265° |
| 2026-04-21 03:02 | -37.66642 | 144.84690 | 346 ft | 2 kts | 263° |
| 2026-04-21 03:02 | -37.66647 | 144.84652 | 349 ft | 12 kts | 260° |
| 2026-04-21 03:02 | -37.66656 | 144.84578 | 354 ft | 7 kts | 262° |
| 2026-04-21 03:02 | -37.66670 | 144.84458 | 362 ft | 15 kts | 262° |
| 2026-04-21 03:03 | -37.66685 | 144.84335 | 370 ft | 12 kts | 262° |
| 2026-04-21 03:03 | -37.66695 | 144.84259 | 374 ft | 6 kts | 258° |
| 2026-04-21 03:03 | -37.66705 | 144.84221 | 376 ft | 3 kts | 239° |
| 2026-04-21 03:03 | -37.66713 | 144.84210 | 377 ft | 2 kts | 228° |
| 2026-04-21 03:04 | -37.66739 | 144.84192 | 378 ft | 8 kts | 195° |
| 2026-04-21 03:04 | -37.66829 | 144.84200 | 378 ft | 14 kts | 170° |
| 2026-04-21 03:04 | -37.66928 | 144.84219 | 376 ft | 14 kts | 170° |
| 2026-04-21 03:04 | -37.67030 | 144.84239 | 374 ft | 15 kts | 171° |
| 2026-04-21 03:05 | -37.67137 | 144.84258 | 372 ft | 11 kts | 171° |
| 2026-04-21 03:05 | -37.67176 | 144.84265 | 376 ft | 6 kts | 172° |
| 2026-04-21 03:05 | -37.67246 | 144.84278 | 369 ft | 14 kts | 172° |
| 2026-04-21 03:05 | -37.67364 | 144.84300 | 371 ft | 20 kts | 169° |
| 2026-04-21 03:06 | -37.67475 | 144.84321 | 366 ft | 16 kts | 172° |
| 2026-04-21 03:06 | -37.67590 | 144.84342 | 363 ft | 17 kts | 171° |
| 2026-04-21 03:06 | -37.67709 | 144.84365 | 359 ft | 17 kts | 171° |
| 2026-04-21 03:06 | -37.67783 | 144.84371 | 361 ft | 9 kts | 199° |
| 2026-04-21 03:07 | -37.67832 | 144.84318 | 361 ft | 10 kts | 233° |
| 2026-04-21 03:07 | -37.67856 | 144.84243 | 358 ft | 9 kts | 258° |
| 2026-04-21 03:07 | -37.67866 | 144.84169 | 359 ft | 8 kts | 260° |
| 2026-04-21 03:07 | -37.67868 | 144.84153 | 360 ft | 0 kts | 261° |
| 2026-04-21 03:08 | -37.67871 | 144.84126 | 362 ft | 5 kts | 261° |
| 2026-04-21 03:08 | -37.67877 | 144.84084 | 354 ft | 6 kts | 261° |
| 2026-04-21 03:08 | -37.67879 | 144.83984 | 355 ft | 12 kts | 302° |
| 2026-04-21 03:08 | -37.67844 | 144.83961 | 361 ft | 0 kts | 348° |
| 2026-04-21 03:09 | -37.67706 | 144.83937 | 364 ft | 49 kts | 353° |
| 2026-04-21 03:09 | -37.67163 | 144.83836 | 381 ft | 107 kts | 351° |
| 2026-04-21 03:09 | -37.66264 | 144.83673 | 434 ft | 146 kts | 354° |
| 2026-04-21 03:09 | -37.65284 | 144.83529 | 1015 ft | 137 kts | 355° |
| 2026-04-21 03:10 | -37.64343 | 144.83372 | 1553 ft | 142 kts | 349° |
| 2026-04-21 03:10 | -37.63346 | 144.83142 | 2023 ft | 152 kts | 351° |
| 2026-04-21 03:10 | -37.62222 | 144.82895 | 2345 ft | 174 kts | 348° |
| 2026-04-21 03:10 | -37.60958 | 144.82603 | 2553 ft | 195 kts | 347° |
| 2026-04-21 03:11 | -37.59557 | 144.82406 | 2764 ft | 216 kts | 358° |
| 2026-04-21 03:11 | -37.57967 | 144.82820 | 3042 ft | 250 kts | 18° |
| 2026-04-21 03:11 | -37.56348 | 144.83757 | 3868 ft | 259 kts | 22° |
| 2026-04-21 03:11 | -37.54721 | 144.84779 | 4764 ft | 264 kts | 22° |
| 2026-04-21 03:12 | -37.53053 | 144.85816 | 5613 ft | 270 kts | 19° |
| 2026-04-21 03:12 | -37.51338 | 144.86817 | 6548 ft | 274 kts | 19° |
| 2026-04-21 03:12 | -37.49625 | 144.87844 | 7447 ft | 278 kts | 23° |
| 2026-04-21 03:12 | -37.47887 | 144.88948 | 8373 ft | 283 kts | 24° |
| 2026-04-21 03:13 | -37.46107 | 144.90078 | 9252 ft | 289 kts | 25° |
| 2026-04-21 03:13 | -37.44380 | 144.91418 | 10135 ft | 295 kts | 34° |
| 2026-04-21 03:13 | -37.42811 | 144.93162 | 10725 ft | 311 kts | 45° |
| 2026-04-21 03:13 | -37.41345 | 144.95298 | 11029 ft | 335 kts | 50° |
| 2026-04-21 03:14 | -37.39896 | 144.97689 | 11533 ft | 350 kts | 52° |
| 2026-04-21 03:14 | -37.38464 | 145.00207 | 12271 ft | 357 kts | 53° |
| 2026-04-21 03:14 | -37.37030 | 145.02774 | 13107 ft | 361 kts | 54° |
| 2026-04-21 03:14 | -37.35583 | 145.05374 | 13889 ft | 365 kts | 54° |
| 2026-04-21 03:15 | -37.34112 | 145.08012 | 14568 ft | 371 kts | 55° |
| 2026-04-21 03:15 | -37.32631 | 145.10686 | 15258 ft | 375 kts | 56° |
| 2026-04-21 03:15 | -37.31142 | 145.13390 | 15982 ft | 378 kts | 56° |
| 2026-04-21 03:15 | -37.29631 | 145.16114 | 16685 ft | 382 kts | 55° |
| 2026-04-21 03:16 | -37.28090 | 145.18859 | 17379 ft | 386 kts | 54° |
| 2026-04-21 03:16 | -37.26521 | 145.21609 | 18055 ft | 390 kts | 55° |
| 2026-04-21 03:16 | -37.24934 | 145.24388 | 18708 ft | 394 kts | 55° |
| 2026-04-21 03:16 | -37.23354 | 145.27163 | 19299 ft | 397 kts | 55° |
| 2026-04-21 03:17 | -37.21741 | 145.30002 | 19905 ft | 400 kts | 55° |
| 2026-04-21 03:17 | -37.20115 | 145.32856 | 20478 ft | 404 kts | 54° |
| 2026-04-21 03:17 | -37.18465 | 145.35735 | 21045 ft | 408 kts | 54° |
| 2026-04-21 03:17 | -37.17271 | 145.37815 | 21458 ft | 410 kts | 54° |
| 2026-04-21 03:18 | -37.16458 | 145.39234 | 21734 ft | 411 kts | 54° |
| 2026-04-21 03:18 | -37.14790 | 145.42166 | 22301 ft | 415 kts | 55° |
| 2026-04-21 03:18 | -37.13110 | 145.45126 | 22873 ft | 418 kts | 54° |
| 2026-04-21 03:19 | -37.11416 | 145.48102 | 23422 ft | 421 kts | 54° |
| 2026-04-21 03:19 | -37.09704 | 145.51100 | 23978 ft | 424 kts | 54° |
| 2026-04-21 03:19 | -37.07977 | 145.54114 | 24412 ft | 428 kts | 54° |
| 2026-04-21 03:19 | -37.06228 | 145.57159 | 24836 ft | 432 kts | 54° |
| 2026-04-21 03:20 | -37.04462 | 145.60232 | 25269 ft | 435 kts | 54° |
| 2026-04-21 03:20 | -37.02691 | 145.63315 | 25693 ft | 438 kts | 54° |
| 2026-04-21 03:20 | -37.00905 | 145.66421 | 26120 ft | 441 kts | 54° |
| 2026-04-21 03:20 | -36.99103 | 145.69550 | 26557 ft | 444 kts | 54° |
| 2026-04-21 03:21 | -36.97289 | 145.72690 | 26953 ft | 447 kts | 53° |
| 2026-04-21 03:21 | -36.95459 | 145.75848 | 27334 ft | 450 kts | 53° |
| 2026-04-21 03:21 | -36.93639 | 145.78981 | 27720 ft | 453 kts | 53° |
| 2026-04-21 03:21 | -36.91780 | 145.82183 | 28036 ft | 457 kts | 54° |
| 2026-04-21 03:22 | -36.89906 | 145.85420 | 28393 ft | 460 kts | 54° |
| 2026-04-21 03:22 | -36.88030 | 145.88671 | 28784 ft | 463 kts | 54° |
| 2026-04-21 03:22 | -36.86140 | 145.91943 | 29175 ft | 465 kts | 54° |
| 2026-04-21 03:22 | -36.84243 | 145.95219 | 29531 ft | 467 kts | 54° |
| 2026-04-21 03:23 | -36.82328 | 145.98516 | 29867 ft | 470 kts | 53° |
| 2026-04-21 03:23 | -36.80396 | 146.01835 | 30205 ft | 473 kts | 53° |
| 2026-04-21 03:23 | -36.78449 | 146.05172 | 30575 ft | 475 kts | 53° |
| 2026-04-21 03:23 | -36.76503 | 146.08507 | 30894 ft | 476 kts | 54° |
| 2026-04-21 03:24 | -36.74550 | 146.11848 | 31272 ft | 476 kts | 53° |
| 2026-04-21 03:24 | -36.72601 | 146.15178 | 31692 ft | 474 kts | 53° |
| 2026-04-21 03:24 | -36.70658 | 146.18495 | 32075 ft | 474 kts | 53° |
| 2026-04-21 03:24 | -36.68716 | 146.21809 | 32439 ft | 473 kts | 53° |
| 2026-04-21 03:25 | -36.66799 | 146.25078 | 32785 ft | 473 kts | 53° |
| 2026-04-21 03:25 | -36.64857 | 146.28387 | 33142 ft | 473 kts | 53° |
| 2026-04-21 03:25 | -36.62918 | 146.31689 | 33498 ft | 473 kts | 53° |
| 2026-04-21 03:25 | -36.60973 | 146.34998 | 33774 ft | 474 kts | 54° |
| 2026-04-21 03:26 | -36.59026 | 146.38306 | 34070 ft | 474 kts | 54° |
| 2026-04-21 03:26 | -36.57078 | 146.41614 | 34397 ft | 473 kts | 54° |
| 2026-04-21 03:26 | -36.55132 | 146.44914 | 34678 ft | 473 kts | 54° |
| 2026-04-21 03:26 | -36.53186 | 146.48212 | 34931 ft | 473 kts | 53° |
| 2026-04-21 03:27 | -36.51239 | 146.51508 | 35168 ft | 473 kts | 53° |
| 2026-04-21 03:27 | -36.49295 | 146.54795 | 35402 ft | 473 kts | 53° |
| 2026-04-21 03:27 | -36.47341 | 146.58097 | 35627 ft | 473 kts | 53° |
| 2026-04-21 03:27 | -36.45387 | 146.61386 | 35850 ft | 473 kts | 53° |
| 2026-04-21 03:28 | -36.43429 | 146.64670 | 36061 ft | 473 kts | 53° |
| 2026-04-21 03:28 | -36.41463 | 146.67960 | 36288 ft | 473 kts | 53° |
| 2026-04-21 03:28 | -36.39500 | 146.71240 | 36490 ft | 473 kts | 53° |
| 2026-04-21 03:28 | -36.37559 | 146.74486 | 36697 ft | 473 kts | 53° |
| 2026-04-21 03:29 | -36.35573 | 146.77810 | 36894 ft | 473 kts | 53° |
| 2026-04-21 03:29 | -36.33638 | 146.81050 | 37075 ft | 474 kts | 53° |
| 2026-04-21 03:29 | -36.31677 | 146.84336 | 37266 ft | 474 kts | 53° |
| 2026-04-21 03:29 | -36.29706 | 146.87636 | 37333 ft | 476 kts | 53° |
| 2026-04-21 03:30 | -36.25771 | 146.94215 | 37328 ft | 474 kts | 53° |
| 2026-04-21 03:30 | -36.21841 | 147.00774 | 37323 ft | 474 kts | 53° |
| 2026-04-21 03:31 | -36.17910 | 147.07320 | 37328 ft | 474 kts | 53° |
| 2026-04-21 03:31 | -36.13968 | 147.13858 | 37334 ft | 474 kts | 53° |
| 2026-04-21 03:32 | -36.10022 | 147.20385 | 37334 ft | 473 kts | 53° |
| 2026-04-21 03:32 | -36.06082 | 147.26901 | 37327 ft | 473 kts | 53° |
| 2026-04-21 03:33 | -36.02133 | 147.33424 | 37336 ft | 474 kts | 53° |
| 2026-04-21 03:33 | -35.98180 | 147.39943 | 37339 ft | 474 kts | 53° |
| 2026-04-21 03:34 | -35.94224 | 147.46455 | 37328 ft | 474 kts | 53° |
| 2026-04-21 03:34 | -35.90285 | 147.52925 | 37328 ft | 474 kts | 53° |
| 2026-04-21 03:35 | -35.86333 | 147.59431 | 37328 ft | 474 kts | 55° |
| 2026-04-21 03:35 | -35.82430 | 147.65979 | 37341 ft | 473 kts | 55° |
| 2026-04-21 03:36 | -35.78502 | 147.72492 | 37324 ft | 473 kts | 54° |
| 2026-04-21 03:36 | -35.74543 | 147.78977 | 37324 ft | 474 kts | 54° |
| 2026-04-21 03:37 | -35.70593 | 147.85406 | 37324 ft | 474 kts | 54° |
| 2026-04-21 03:37 | -35.66613 | 147.91866 | 37326 ft | 474 kts | 54° |
| 2026-04-21 03:38 | -35.62629 | 147.98322 | 37326 ft | 474 kts | 54° |
| 2026-04-21 03:38 | -35.58642 | 148.04773 | 37324 ft | 474 kts | 54° |
| 2026-04-21 03:39 | -35.54651 | 148.11220 | 37327 ft | 474 kts | 54° |
| 2026-04-21 03:39 | -35.50655 | 148.17663 | 37320 ft | 474 kts | 54° |
| 2026-04-21 03:40 | -35.47328 | 148.23018 | 37326 ft | 474 kts | 54° |
| 2026-04-21 03:40 | -35.43325 | 148.29450 | 37328 ft | 474 kts | 54° |
| 2026-04-21 03:41 | -35.39319 | 148.35875 | 37324 ft | 475 kts | 54° |
| 2026-04-21 03:41 | -35.35284 | 148.42336 | 37328 ft | 479 kts | 54° |
| 2026-04-21 03:42 | -35.31248 | 148.48787 | 37349 ft | 480 kts | 54° |
| 2026-04-21 03:42 | -35.27183 | 148.55265 | 37333 ft | 480 kts | 54° |
| 2026-04-21 03:43 | -35.23117 | 148.61736 | 37331 ft | 480 kts | 54° |
| 2026-04-21 03:43 | -35.19044 | 148.68205 | 37334 ft | 480 kts | 54° |
| 2026-04-21 03:44 | -35.14962 | 148.74680 | 37341 ft | 480 kts | 54° |
| 2026-04-21 03:44 | -35.10875 | 148.81149 | 37338 ft | 480 kts | 54° |
| 2026-04-21 03:45 | -35.06793 | 148.87600 | 37341 ft | 480 kts | 54° |
| 2026-04-21 03:45 | -35.02731 | 148.94008 | 37342 ft | 480 kts | 54° |
| 2026-04-21 03:46 | -35.00688 | 148.97225 | 37044 ft | 479 kts | 54° |
| 2026-04-21 03:46 | -34.98647 | 149.00437 | 36448 ft | 479 kts | 54° |
| 2026-04-21 03:46 | -34.96605 | 149.03648 | 35957 ft | 480 kts | 54° |
| 2026-04-21 03:46 | -34.94554 | 149.06869 | 35484 ft | 481 kts | 54° |
| 2026-04-21 03:47 | -34.92502 | 149.10090 | 35010 ft | 482 kts | 54° |
| 2026-04-21 03:47 | -34.90440 | 149.13323 | 34522 ft | 483 kts | 54° |
| 2026-04-21 03:47 | -34.88375 | 149.16559 | 34023 ft | 484 kts | 54° |
| 2026-04-21 03:47 | -34.86305 | 149.19798 | 33481 ft | 485 kts | 54° |
| 2026-04-21 03:48 | -34.84226 | 149.23048 | 32957 ft | 486 kts | 54° |
| 2026-04-21 03:48 | -34.82149 | 149.26293 | 32449 ft | 486 kts | 54° |
| 2026-04-21 03:48 | -34.80068 | 149.29541 | 31947 ft | 487 kts | 54° |
| 2026-04-21 03:48 | -34.77985 | 149.32789 | 31451 ft | 487 kts | 54° |
| 2026-04-21 03:49 | -34.75900 | 149.36037 | 30963 ft | 487 kts | 54° |
| 2026-04-21 03:49 | -34.73972 | 149.39417 | 30492 ft | 486 kts | 62° |
| 2026-04-21 03:49 | -34.72287 | 149.42976 | 29937 ft | 485 kts | 63° |
| 2026-04-21 03:49 | -34.70663 | 149.46566 | 29384 ft | 483 kts | 64° |
| 2026-04-21 03:50 | -34.69089 | 149.50144 | 28897 ft | 479 kts | 65° |
| 2026-04-21 03:50 | -34.67559 | 149.53666 | 28425 ft | 475 kts | 65° |
| 2026-04-21 03:50 | -34.66027 | 149.57206 | 27955 ft | 471 kts | 65° |
| 2026-04-21 03:50 | -34.64506 | 149.60716 | 27514 ft | 467 kts | 65° |
| 2026-04-21 03:51 | -34.62995 | 149.64188 | 27064 ft | 463 kts | 65° |
| 2026-04-21 03:51 | -34.61491 | 149.67633 | 26603 ft | 460 kts | 65° |
| 2026-04-21 03:51 | -34.59997 | 149.71046 | 26163 ft | 456 kts | 65° |
| 2026-04-21 03:51 | -34.58507 | 149.74441 | 25731 ft | 453 kts | 65° |
| 2026-04-21 03:52 | -34.57027 | 149.77808 | 25310 ft | 450 kts | 65° |
| 2026-04-21 03:52 | -34.55558 | 149.81147 | 24882 ft | 447 kts | 65° |
| 2026-04-21 03:52 | -34.54099 | 149.84458 | 24471 ft | 444 kts | 65° |
| 2026-04-21 03:52 | -34.52650 | 149.87746 | 24071 ft | 441 kts | 65° |
| 2026-04-21 03:53 | -34.51207 | 149.91017 | 23621 ft | 438 kts | 65° |
| 2026-04-21 03:53 | -34.49775 | 149.94258 | 23137 ft | 435 kts | 65° |
| 2026-04-21 03:53 | -34.48349 | 149.97483 | 22664 ft | 432 kts | 65° |
| 2026-04-21 03:53 | -34.46936 | 150.00675 | 22201 ft | 428 kts | 65° |
| 2026-04-21 03:54 | -34.45532 | 150.03845 | 21701 ft | 425 kts | 65° |
| 2026-04-21 03:54 | -34.44137 | 150.06992 | 21207 ft | 422 kts | 65° |
| 2026-04-21 03:54 | -34.42770 | 150.10072 | 20713 ft | 418 kts | 65° |
| 2026-04-21 03:54 | -34.41398 | 150.13161 | 20236 ft | 415 kts | 65° |
| 2026-04-21 03:55 | -34.40038 | 150.16221 | 19758 ft | 412 kts | 65° |
| 2026-04-21 03:55 | -34.38685 | 150.19263 | 19290 ft | 408 kts | 65° |
| 2026-04-21 03:55 | -34.37342 | 150.22278 | 18833 ft | 405 kts | 65° |
| 2026-04-21 03:55 | -34.36011 | 150.25264 | 18312 ft | 402 kts | 64° |
| 2026-04-21 03:56 | -34.34686 | 150.28237 | 17652 ft | 401 kts | 64° |
| 2026-04-21 03:56 | -34.33360 | 150.31208 | 16988 ft | 400 kts | 64° |
| 2026-04-21 03:56 | -34.32042 | 150.34161 | 16337 ft | 398 kts | 64° |
| 2026-04-21 03:56 | -34.30729 | 150.37103 | 15695 ft | 397 kts | 64° |
| 2026-04-21 03:57 | -34.29418 | 150.40028 | 15077 ft | 395 kts | 64° |
| 2026-04-21 03:57 | -34.28110 | 150.42946 | 14448 ft | 393 kts | 63° |
| 2026-04-21 03:57 | -34.26812 | 150.45849 | 13806 ft | 391 kts | 63° |
| 2026-04-21 03:57 | -34.25521 | 150.48736 | 13134 ft | 389 kts | 64° |
| 2026-04-21 03:58 | -34.24238 | 150.51600 | 12470 ft | 387 kts | 64° |
| 2026-04-21 03:58 | -34.22963 | 150.54448 | 11821 ft | 382 kts | 64° |
| 2026-04-21 03:58 | -34.21711 | 150.57238 | 11179 ft | 371 kts | 64° |
| 2026-04-21 03:58 | -34.20499 | 150.59937 | 10568 ft | 360 kts | 65° |
| 2026-04-21 03:59 | -34.19325 | 150.62556 | 10041 ft | 348 kts | 64° |
| 2026-04-21 03:59 | -34.18193 | 150.65075 | 9549 ft | 334 kts | 64° |
| 2026-04-21 03:59 | -34.17105 | 150.67493 | 9090 ft | 322 kts | 64° |
| 2026-04-21 04:00 | -34.15054 | 150.72048 | 8379 ft | 295 kts | 64° |
| 2026-04-21 04:00 | -34.14089 | 150.74191 | 8073 ft | 288 kts | 64° |
| 2026-04-21 04:00 | -34.13136 | 150.76311 | 7989 ft | 288 kts | 66° |
| 2026-04-21 04:00 | -34.12174 | 150.78449 | 7982 ft | 291 kts | 65° |
| 2026-04-21 04:01 | -34.11208 | 150.80592 | 7984 ft | 291 kts | 65° |
| 2026-04-21 04:01 | -34.10248 | 150.82714 | 7976 ft | 284 kts | 64° |
| 2026-04-21 04:01 | -34.09322 | 150.84764 | 7981 ft | 280 kts | 65° |
| 2026-04-21 04:01 | -34.08394 | 150.86824 | 7863 ft | 278 kts | 65° |
| 2026-04-21 04:02 | -34.07474 | 150.88870 | 7389 ft | 277 kts | 65° |
| 2026-04-21 04:02 | -34.06557 | 150.90911 | 6897 ft | 276 kts | 65° |
| 2026-04-21 04:02 | -34.05642 | 150.92943 | 6417 ft | 274 kts | 65° |
| 2026-04-21 04:02 | -34.04738 | 150.94941 | 6071 ft | 270 kts | 65° |
| 2026-04-21 04:03 | -34.03843 | 150.96925 | 5988 ft | 269 kts | 64° |
| 2026-04-21 04:03 | -34.02865 | 150.98863 | 5985 ft | 273 kts | 54° |
| 2026-04-21 04:03 | -34.01475 | 151.00427 | 5987 ft | 277 kts | 33° |
| 2026-04-21 04:03 | -33.99749 | 151.01468 | 5997 ft | 279 kts | 23° |
| 2026-04-21 04:04 | -33.97933 | 151.02323 | 5987 ft | 280 kts | 21° |
| 2026-04-21 04:04 | -33.96024 | 151.02735 | 5999 ft | 277 kts | 359° |
| 2026-04-21 04:04 | -33.94129 | 151.02595 | 5993 ft | 270 kts | 353° |
| 2026-04-21 04:04 | -33.92263 | 151.02351 | 5980 ft | 269 kts | 353° |
| 2026-04-21 04:05 | -33.90402 | 151.02093 | 5596 ft | 269 kts | 353° |
| 2026-04-21 04:05 | -33.88571 | 151.01831 | 5309 ft | 261 kts | 353° |
| 2026-04-21 04:05 | -33.86787 | 151.01575 | 4923 ft | 257 kts | 353° |
| 2026-04-21 04:05 | -33.85046 | 151.01317 | 4518 ft | 255 kts | 353° |
| 2026-04-21 04:06 | -33.83293 | 151.01049 | 4128 ft | 253 kts | 353° |
| 2026-04-21 04:06 | -33.81557 | 151.00778 | 3996 ft | 251 kts | 353° |
| 2026-04-21 04:06 | -33.79822 | 151.00509 | 3990 ft | 252 kts | 353° |
| 2026-04-21 04:06 | -33.78085 | 151.00244 | 3982 ft | 252 kts | 353° |
| 2026-04-21 04:07 | -33.76341 | 150.99973 | 3984 ft | 253 kts | 353° |
| 2026-04-21 04:07 | -33.74589 | 150.99722 | 3962 ft | 253 kts | 358° |
| 2026-04-21 04:07 | -33.72868 | 151.00003 | 3699 ft | 249 kts | 26° |
| 2026-04-21 04:07 | -33.71520 | 151.01171 | 3551 ft | 234 kts | 50° |
| 2026-04-21 04:08 | -33.70618 | 151.02727 | 3383 ft | 223 kts | 77° |
| 2026-04-21 04:08 | -33.70344 | 151.04516 | 3399 ft | 216 kts | 91° |
| 2026-04-21 04:08 | -33.70250 | 151.06325 | 3182 ft | 217 kts | 92° |
| 2026-04-21 04:08 | -33.70222 | 151.08131 | 2916 ft | 213 kts | 101° |
| 2026-04-21 04:09 | -33.70775 | 151.09716 | 2852 ft | 210 kts | 135° |
| 2026-04-21 04:09 | -33.71847 | 151.10806 | 3036 ft | 191 kts | 143° |
| 2026-04-21 04:09 | -33.72828 | 151.11774 | 2992 ft | 181 kts | 143° |
| 2026-04-21 04:09 | -33.73863 | 151.12603 | 2960 ft | 179 kts | 167° |
| 2026-04-21 04:10 | -33.75109 | 151.12777 | 2976 ft | 182 kts | 174° |
| 2026-04-21 04:10 | -33.76347 | 151.12966 | 2985 ft | 176 kts | 171° |
| 2026-04-21 04:10 | -33.77541 | 151.13242 | 2988 ft | 174 kts | 167° |
| 2026-04-21 04:10 | -33.78718 | 151.13544 | 2882 ft | 173 kts | 168° |
| 2026-04-21 04:11 | -33.79884 | 151.13843 | 2688 ft | 168 kts | 168° |
| 2026-04-21 04:11 | -33.80988 | 151.14124 | 2461 ft | 157 kts | 168° |
| 2026-04-21 04:11 | -33.82048 | 151.14393 | 2223 ft | 154 kts | 169° |
| 2026-04-21 04:11 | -33.83080 | 151.14656 | 2029 ft | 149 kts | 168° |
| 2026-04-21 04:12 | -33.84082 | 151.14912 | 1826 ft | 146 kts | 168° |
| 2026-04-21 04:12 | -33.85074 | 151.15179 | 1687 ft | 145 kts | 169° |
| 2026-04-21 04:12 | -33.86042 | 151.15395 | 1387 ft | 139 kts | 170° |
| 2026-04-21 04:12 | -33.86953 | 151.15513 | 1246 ft | 127 kts | 172° |
| 2026-04-21 04:13 | -33.87826 | 151.15693 | 1008 ft | 125 kts | 172° |
| 2026-04-21 04:13 | -33.88620 | 151.15826 | 975 ft | 112 kts | 169° |
| 2026-04-21 04:13 | -33.89408 | 151.16090 | 818 ft | 126 kts | 161° |
| 2026-04-21 04:13 | -33.90278 | 151.16482 | 617 ft | 139 kts | 165° |
| 2026-04-21 04:14 | -33.91198 | 151.16700 | 526 ft | 130 kts | 172° |
| 2026-04-21 04:14 | -33.92083 | 151.16930 | 261 ft | 130 kts | 173° |
| 2026-04-21 04:14 | -33.92916 | 151.17152 | 91 ft | 115 kts | 172° |
| 2026-04-21 04:14 | -33.93633 | 151.17340 | 24 ft | 96 kts | 169° |
| 2026-04-21 04:15 | -33.94150 | 151.17472 | 26 ft | 42 kts | 168° |
| 2026-04-21 04:15 | -33.94308 | 151.17540 | 28 ft | 16 kts | 156° |
| 2026-04-21 04:15 | -33.94386 | 151.17593 | 27 ft | 12 kts | 149° |
| 2026-04-21 04:15 | -33.94445 | 151.17644 | 28 ft | 9 kts | 143° |
| 2026-04-21 04:16 | -33.94449 | 151.17647 | 28 ft | 0 kts | 142° |
| 2026-04-21 04:16 | -33.94475 | 151.17672 | 28 ft | 11 kts | 141° |
| 2026-04-21 04:17 | -33.94500 | 151.17697 | 27 ft | 10 kts | 139° |
| 2026-04-21 04:17 | -33.94487 | 151.17772 | 26 ft | 11 kts | 18° |
| 2026-04-21 04:17 | -33.94415 | 151.17763 | 26 ft | 10 kts | 346° |
| 2026-04-21 04:17 | -33.94344 | 151.17739 | 25 ft | 11 kts | 346° |
| 2026-04-21 04:18 | -33.94267 | 151.17715 | 24 ft | 12 kts | 345° |
| 2026-04-21 04:18 | -33.94188 | 151.17691 | 28 ft | 11 kts | 345° |
| 2026-04-21 04:18 | -33.94115 | 151.17669 | 27 ft | 10 kts | 346° |
| 2026-04-21 04:18 | -33.94044 | 151.17647 | 26 ft | 11 kts | 348° |
| 2026-04-21 04:19 | -33.93967 | 151.17627 | 23 ft | 12 kts | 348° |
| 2026-04-21 04:19 | -33.93881 | 151.17606 | 24 ft | 13 kts | 348° |
| 2026-04-21 04:19 | -33.93795 | 151.17584 | 21 ft | 12 kts | 346° |
| 2026-04-21 04:19 | -33.93712 | 151.17561 | 20 ft | 12 kts | 348° |
| 2026-04-21 04:20 | -33.93626 | 151.17538 | 20 ft | 13 kts | 346° |
| 2026-04-21 04:20 | -33.93543 | 151.17517 | 21 ft | 11 kts | 348° |
| 2026-04-21 04:20 | -33.93473 | 151.17501 | 22 ft | 9 kts | 355° |
| 2026-04-21 04:20 | -33.93418 | 151.17494 | 23 ft | 7 kts | 355° |
| 2026-04-21 04:21 | -33.93377 | 151.17500 | 25 ft | 4 kts | 358° |
| 2026-04-21 04:21 | -33.93348 | 151.17495 | 27 ft | 4 kts | 349° |
| 2026-04-21 04:21 | -33.93282 | 151.17478 | 24 ft | 18 kts | 347° |
| 2026-04-21 04:21 | -33.93162 | 151.17447 | 25 ft | 9 kts | 348° |
| 2026-04-21 04:22 | -33.93110 | 151.17433 | 26 ft | 17 kts | 347° |
| 2026-04-21 04:22 | -33.93041 | 151.17415 | 26 ft | 15 kts | 346° |
| 2026-04-21 04:22 | -33.92987 | 151.17464 | 31 ft | 3 kts | 88° |
| 2026-04-21 04:22 | -33.92993 | 151.17520 | 33 ft | 15 kts | 101° |
| 2026-04-21 04:23 | -33.93024 | 151.17680 | 32 ft | 12 kts | 110° |
| 2026-04-21 04:23 | -33.93045 | 151.17736 | 33 ft | 10 kts | 118° |
| 2026-04-21 04:23 | -33.93065 | 151.17818 | 34 ft | 9 kts | 101° |
| 2026-04-21 04:23 | -33.93097 | 151.17866 | 32 ft | 5 kts | 177° |
| 2026-04-21 04:24 | -33.93120 | 151.17864 | 34 ft | 5 kts | 187° |
| 2026-04-21 04:24 | -33.93148 | 151.17859 | 34 ft | 1 kts | 189° |
| 2026-04-21 04:24 | -33.93154 | 151.17858 | 34 ft | 1 kts | 188° |
| 2026-04-21 04:24 | -33.93157 | 151.17857 | 34 ft | 0 kts | 188° |